Flight Track Log - Related Links

Times and Time Zones

All times are in EDT time to prevent confusion due to time zone crossing. See the JBU24 flight status page for this flight to view local times or setup timezone preferences in your user account.

Time Position Orientation Groundspeed Altitude Reporting Facility
EDT Latitude Longitude Course Direction KTS MPH feet Rate Location/Type
Sun 05:33:29 PM 40.6333 -73.8333 316° Northwest 164 189 2,700  Level New York TRACON
Sun 05:34:29 PM 40.5833 -73.7833 143° Southeast 250 288 5,600 2,850 Climbing New York TRACON
Sun 05:35:00 PM 40.8114 -74.0114 323° Northwest  Level FlightAware Approximate
Sun 05:35:29 PM 40.6000 -73.7000 75° East 287 330 8,400  Level New York TRACON
Sun 05:36:00 PM 40.8695 -74.0958 311° West  Level FlightAware Approximate
Sun 05:36:29 PM 40.6667 -73.6000 49° Northeast 313 360 11,600  Level New York TRACON
Sun 05:37:00 PM 40.9274 -74.1805 316° Northwest  Level FlightAware Approximate
Sun 05:37:29 PM 40.7333 -73.5167 43° Northeast 352 405 14,000  Level New York TRACON
Sun 05:38:00 PM 40.9894 -74.2601 316° Northwest  Level FlightAware Approximate
Sun 05:38:29 PM 40.8333 -73.5000 North 355 409 16,700  Level New York TRACON
Sun 05:39:29 PM 40.9167 -73.5500 336° Northwest 378 435 17,000 150 Climbing New York TRACON
Sun 05:40:29 PM 41.0000 -73.6500 318° Northwest 370 426 17,000  Level New York TRACON
Sun 05:41:29 PM 41.0500 -73.7500 304° West 352 405 17,000  Level New York TRACON
Sun 05:42:29 PM 41.0667 -73.8667 281° West 332 382 17,000  Level New York TRACON
Sun 05:43:29 PM 41.1000 -73.9833 291° West 336 387 17,000 604 Level New York TRACON
Sun 05:45:18 PM 41.1431 -74.2014 285° West 341 392 18,700 1,482 Climbing New York Center
Sun 05:46:19 PM 41.1692 -74.3047 289° West 341 392 21,200 1,664 Climbing New York Center
Sun 05:47:17 PM 41.1967 -74.4300 286° West 347 399 22,000 403 Climbing New York Center
Sun 05:48:18 PM 41.2258 -74.5614 286° West 358 412 22,000  Level New York Center
Sun 05:49:19 PM 41.2886 -74.6781 306° West 364 419 22,000  Level New York Center
Sun 05:50:17 PM 41.3556 -74.7925 308° West 378 435 22,000  Level New York Center
Sun 05:51:18 PM 41.4267 -74.9047 310° West 392 451 22,000  Level New York Center
Sun 05:52:19 PM 41.4936 -75.0167 309° West 392 451 22,000  Level New York Center
Sun 05:53:17 PM 41.5603 -75.1264 309° West 392 451 22,000  Level New York Center
Sun 05:54:18 PM 41.6269 -75.2361 309° West 386 444 22,000  Level New York Center
Sun 05:55:18 PM 41.6936 -75.3489 308° West 386 444 22,000  Level New York Center
Sun 05:56:19 PM 41.7619 -75.4647 308° West 386 444 22,000  Level New York Center
Sun 05:57:19 PM 41.8361 -75.5897 309° West 386 444 22,000  Level New York Center
Sun 05:58:17 PM 41.9022 -75.7033 308° West 386 444 22,000  Level New York Center
Sun 05:59:19 PM 41.9683 -75.8142 309° West 386 444 22,000  Level New York Center
Sun 06:00:19 PM 42.0361 -75.9283 309° West 386 444 22,000  Level New York Center
Sun 06:01:20 PM 42.1000 -76.0394 308° West 386 444 22,000 -814 Level New York Center
Sun 06:02:17 PM 42.1964 -76.1172 329° Northwest 391 450 20,400 -2,010 Descending New York Center
Sun 06:04:37 PM 42.4558 -76.1044 North 340 391 15,400 -2,478 Descending Boston Center
Sun 06:05:38 PM 42.5481 -76.0928 North 331 381 12,100 -2,079 Descending Boston Center
Sun 06:06:44 PM 42.6442 -76.0844 North 321 369 11,000 -1,039 Descending Boston Center
Sun 06:07:45 PM 42.7278 -76.0781 North 304 350 9,900 -1,594 Descending Boston Center
Sun 06:08:52 PM 42.8219 -76.0667 North 287 330 7,600 -2,132 Descending Boston Center
Sun 06:09:46 PM 42.8933 -76.0511 North 280 322 5,600 -2,139 Descending Boston Center
Sun 06:10:47 PM 42.9669 -76.0269 14° North 272 313 3,500 -1,623 Descending Boston Center
Sun 06:11:48 PM 43.0322 -76.0081 12° North 214 246 2,300 -942 Descending Boston Center
Sun 06:12:48 PM 43.0625 -76.0411 321° Northwest 124 143 1,600 -645 Descending Boston Center
Sun 06:13:49 PM 43.0906 -76.0739 320° Northwest 117 135 1,000 -590 Descending Boston Center

Login

Don't have an account? Register now (free) for customized features, flight alerts, and more!